Marriottsville, Maryland
Current Conditions -  °F | °C
As of 1:54 AM on Thursday 23 Oct 2014 (Local Time) from KBWI Reporting Station
Overcast Overcast  
Wind Chill: 52°   Ceiling: 3100
Heat Index: 52°   Visibility: 10mi
Dew Point: 43°   Wind: 12mph
Humidity: 71%   Direction: 310°NW
Pressure: 29.87"   Gusts: 18mph
Location:  39.32°N, 76.92°W
Report Text: KBWI 230554Z 31010G16KT 10SM OVC031 11/06 A2987 RMK AO2 SLP114 T01110061 10122 20111 56015
Loading
Personal Weather Stations






























Interactive Weather Map
Tropical Storm Tracking
New forecast layout! Learn more

10-Day Weather Forecast

Advertisements
Track Severe Weather on mobile